メインページ
METAR-TAF:

METAR-TAF

空港 :

イーラーム, イラン

緯度: 33-35-09N, 経度: 046-24-20E, 海抜: 1334m

現時点の気象観測

当レポートは1時間7分前の08:00(UTC)に作成
東/北東の風 8kt
気温 23°C
湿度 29%
気圧 1018 hPa
視程10km以上
1,500メートル以下は雲なし、積乱雲なし

METAR: OICI 250800Z 07008KT CAVOK 23/04 Q1017 A3006

時間: 13:37 (09:07 UTC)

予報

当レポートは3時間17分前の05:50(UTC)に作成
予報は25日の 06時(UTC)から 26日の 12時(UTC)まで有効
東/北東の風 8kt
視程10km以上
1,500メートル以下は雲なし、積乱雲なし
確率 40% :
25日の 06時(UTC)から 25日の 14時(UTC)まで一時的に
東/北東の風 18kt
26日の 08時(UTC)から 26日の 09時(UTC)まで徐々に
西の風 8kt
確率 40% :
26日の 09時(UTC)から 26日の 14時(UTC)まで一時的に
西の風 18kt

TAF: OICI 250550Z 2506/2612 06008KT CAVOK PROB40 TEMPO 2506/2514 06018KT BECMG 2608/2609 27008KT PROB40 TEMPO 2609/2614 27018KT

4,000以上の空港の気象観測と天気予報(METAR報とTAF報)

利用可能な観測所は地図上に黄色い丸と赤い丸で示す。

丸の上にカーソルを重ねると観測所名を参照できる。

次にクリックすると気象観測と天気予報を参照できる。

マップの切り替え:黒色「×」印の緑ボタンをクリックして拡大、「-」印の緑ボタンをクリックして縮小、緑色の三角印をクリックして隣りの地図に切り替え


METAR-TAF: